createdAt,value
2022-12-12T00:01:40.134Z,2.30
2022-12-12T00:04:07.431Z,2.30
2022-12-12T00:06:34.372Z,2.30
2022-12-12T00:09:01.633Z,2.30
2022-12-12T00:11:28.632Z,2.20
2022-12-12T00:13:55.619Z,2.20
2022-12-12T00:16:23.766Z,2.20
2022-12-12T00:18:51.155Z,2.20
2022-12-12T00:21:22.185Z,2.20
2022-12-12T00:26:20.582Z,2.30
2022-12-12T00:28:47.942Z,2.30
2022-12-12T00:31:16.282Z,2.20
2022-12-12T00:33:45.082Z,2.20
2022-12-12T00:36:12.172Z,2.30
2022-12-12T00:38:39.207Z,2.30
2022-12-12T00:41:06.444Z,2.30
2022-12-12T00:43:33.713Z,2.20
2022-12-12T00:46:01.234Z,2.20
2022-12-12T00:48:28.743Z,-0.80
2022-12-12T00:50:56.642Z,2.20
2022-12-12T00:53:24.089Z,2.20
2022-12-12T00:55:58.195Z,2.20
2022-12-12T00:58:25.872Z,2.20
2022-12-12T01:00:53.436Z,2.20
2022-12-12T01:03:21.183Z,2.10
2022-12-12T01:05:48.340Z,2.10
2022-12-12T01:08:15.565Z,2.20
2022-12-12T01:10:42.579Z,2.10
2022-12-12T01:13:09.486Z,2.20
2022-12-12T01:15:36.441Z,2.20
2022-12-12T01:18:03.366Z,2.20
2022-12-12T01:20:30.294Z,2.20
2022-12-12T01:22:57.394Z,2.20
2022-12-12T01:25:24.312Z,2.20
2022-12-12T01:27:51.555Z,2.10
2022-12-12T01:30:21.717Z,2.10
2022-12-12T01:32:49.325Z,2.20
2022-12-12T01:35:16.448Z,2.20
2022-12-12T01:37:43.729Z,2.20
2022-12-12T01:40:19.214Z,2.10
2022-12-12T01:42:47.011Z,2.10
2022-12-12T01:45:51.234Z,2.10
2022-12-12T01:48:19.769Z,2.10
2022-12-12T01:50:47.042Z,2.10
2022-12-12T01:53:17.565Z,2.10
2022-12-12T01:55:46.355Z,2.10
2022-12-12T01:58:13.684Z,2.20
2022-12-12T02:00:41.431Z,2.10
2022-12-12T02:03:08.732Z,2.10
2022-12-12T02:05:44.423Z,2.20
2022-12-12T02:08:13.049Z,2.10
2022-12-12T02:10:39.990Z,2.20
2022-12-12T02:13:11.810Z,2.10
2022-12-12T02:16:09.473Z,2.00
2022-12-12T02:18:52.549Z,2.00
2022-12-12T02:21:23.246Z,2.00
2022-12-12T02:24:49.265Z,1.90
2022-12-12T02:27:29.340Z,1.90
2022-12-12T02:30:20.700Z,1.80
2022-12-12T02:33:07.117Z,1.90
2022-12-12T02:35:39.304Z,2.00
2022-12-12T02:38:43.178Z,1.90
2022-12-12T02:41:25.325Z,1.90
2022-12-12T02:44:22.335Z,2.00
2022-12-12T02:46:56.282Z,2.00
2022-12-12T02:49:28.923Z,2.00
2022-12-12T02:51:58.465Z,2.10
2022-12-12T02:54:25.921Z,2.00
2022-12-12T02:56:56.001Z,2.00
2022-12-12T02:59:37.033Z,2.00
2022-12-12T03:06:28.799Z,1.90
2022-12-12T03:09:16.551Z,1.90
2022-12-12T03:12:11.600Z,1.90
2022-12-12T03:14:57.491Z,1.80
2022-12-12T03:17:41.556Z,1.90
2022-12-12T03:20:11.604Z,1.80
2022-12-12T03:22:56.593Z,1.70
2022-12-12T03:25:27.776Z,1.80
2022-12-12T03:28:12.064Z,1.70
2022-12-12T03:30:44.265Z,1.80
2022-12-12T03:33:27.516Z,1.80
2022-12-12T03:36:00.448Z,1.80
2022-12-12T03:38:32.872Z,1.80
2022-12-12T03:41:04.204Z,1.80
2022-12-12T03:43:49.481Z,1.80
2022-12-12T03:49:03.977Z,1.80
2022-12-12T03:51:33.406Z,3.60
2022-12-12T03:54:23.309Z,1.70
2022-12-12T03:57:00.907Z,1.80
2022-12-12T03:59:38.648Z,1.70
2022-12-12T04:02:34.196Z,1.70
2022-12-12T04:05:21.720Z,1.70
2022-12-12T04:07:52.933Z,1.70
2022-12-12T04:10:42.334Z,1.80
2022-12-12T04:13:32.393Z,1.70
2022-12-12T04:16:20.661Z,1.70
2022-12-12T04:18:58.413Z,1.60
2022-12-12T04:22:05.068Z,1.70
2022-12-12T04:25:01.501Z,1.70
2022-12-12T04:27:37.518Z,1.70
2022-12-12T04:30:07.184Z,1.70
2022-12-12T04:32:40.747Z,1.70
2022-12-12T04:35:44.289Z,1.70
2022-12-12T04:38:17.322Z,1.70
2022-12-12T04:40:51.804Z,1.70
2022-12-12T04:43:20.953Z,1.80
2022-12-12T04:45:53.693Z,1.70
2022-12-12T04:48:28.445Z,1.70
2022-12-12T04:50:57.858Z,1.70
2022-12-12T04:53:35.672Z,1.70
2022-12-12T04:56:08.676Z,1.80
2022-12-12T04:58:37.533Z,1.70
2022-12-12T05:01:16.135Z,1.80
2022-12-12T05:03:54.256Z,1.70
2022-12-12T05:06:44.905Z,1.80
2022-12-12T05:09:14.304Z,1.60
2022-12-12T05:11:42.546Z,1.40
2022-12-12T05:14:10.161Z,1.30
2022-12-12T05:16:47.501Z,1.20
2022-12-12T05:19:14.576Z,1.10
2022-12-12T05:21:41.499Z,1.00
2022-12-12T05:24:08.530Z,1.00
2022-12-12T05:26:36.668Z,1.00
2022-12-12T05:29:07.461Z,1.00
2022-12-12T05:31:35.014Z,1.00
2022-12-12T05:34:02.113Z,1.00
2022-12-12T05:36:29.067Z,1.10
2022-12-12T05:38:56.127Z,1.10
2022-12-12T05:41:23.042Z,1.10
2022-12-12T05:43:49.936Z,1.10
2022-12-12T05:46:17.158Z,1.10
2022-12-12T05:48:44.677Z,1.10
2022-12-12T05:51:11.619Z,1.00
2022-12-12T05:53:42.776Z,1.00
2022-12-12T05:56:11.649Z,1.00
2022-12-12T05:58:39.706Z,1.00
2022-12-12T06:01:06.900Z,1.00
2022-12-12T06:03:33.876Z,1.00
2022-12-12T06:06:01.140Z,1.00
2022-12-12T06:08:28.145Z,1.10
2022-12-12T06:10:55.133Z,1.00
2022-12-12T06:13:22.208Z,0.90
2022-12-12T06:18:16.568Z,1.00
2022-12-12T06:23:10.709Z,1.10
2022-12-12T06:25:37.565Z,1.20
2022-12-12T06:28:04.498Z,1.10
2022-12-12T06:30:31.771Z,1.10
2022-12-12T06:37:53.335Z,1.00
2022-12-12T06:40:20.311Z,0.90
2022-12-12T06:42:48.769Z,1.00
2022-12-12T06:45:16.810Z,1.00
2022-12-12T06:50:11.971Z,1.20
2022-12-12T06:52:38.917Z,1.20
2022-12-12T06:55:06.651Z,1.30
2022-12-12T06:57:33.793Z,1.40
2022-12-12T07:00:01.071Z,1.40
2022-12-12T07:02:30.314Z,1.40
2022-12-12T07:11:16.533Z,1.30
2022-12-12T07:18:38.705Z,1.20
2022-12-12T07:21:07.696Z,1.20
2022-12-12T07:23:35.671Z,1.20
2022-12-12T07:26:09.434Z,1.20
2022-12-12T07:28:38.275Z,1.20
2022-12-12T07:31:10.710Z,1.30
2022-12-12T07:33:43.804Z,1.30
2022-12-12T07:38:39.821Z,1.40
2022-12-12T07:41:14.078Z,1.40
2022-12-12T07:43:44.249Z,1.40
2022-12-12T07:46:15.463Z,1.40
2022-12-12T07:48:42.765Z,1.50
2022-12-12T07:51:09.718Z,1.60
2022-12-12T07:53:36.809Z,1.50
2022-12-12T07:56:08.437Z,1.60
2022-12-12T07:58:36.065Z,1.60
2022-12-12T08:01:14.863Z,1.60
2022-12-12T08:03:43.525Z,1.60
2022-12-12T08:06:10.580Z,1.60
2022-12-12T08:08:38.039Z,1.70
2022-12-12T08:11:07.296Z,1.80
2022-12-12T08:13:36.723Z,-2.10
2022-12-12T08:16:05.249Z,1.80
2022-12-12T08:18:32.246Z,1.80
2022-12-12T08:23:26.581Z,1.80
2022-12-12T08:25:53.510Z,1.90
2022-12-12T08:28:20.482Z,1.90
2022-12-12T08:30:51.323Z,1.90
2022-12-12T08:33:18.631Z,1.80
2022-12-12T08:35:45.689Z,1.70
2022-12-12T08:38:12.666Z,1.70
2022-12-12T08:40:40.045Z,1.60
2022-12-12T08:43:07.137Z,1.60
2022-12-12T08:48:01.529Z,1.50
2022-12-12T08:50:28.456Z,1.40
2022-12-12T08:52:55.457Z,1.40
2022-12-12T08:55:22.388Z,1.10
2022-12-12T08:57:49.372Z,1.20
2022-12-12T09:00:16.719Z,1.20
2022-12-12T09:02:44.274Z,1.20
2022-12-12T09:05:11.706Z,1.10
2022-12-12T09:07:38.800Z,1.00
2022-12-12T09:10:06.484Z,1.20
2022-12-12T09:12:38.282Z,1.10
2022-12-12T09:15:09.170Z,1.20
2022-12-12T09:17:36.285Z,1.30
2022-12-12T09:20:03.745Z,1.30
2022-12-12T09:22:30.653Z,1.40
2022-12-12T09:24:57.616Z,1.40
2022-12-12T09:27:24.543Z,1.30
2022-12-12T09:32:24.344Z,1.20
2022-12-12T09:34:52.066Z,1.20
2022-12-12T09:37:18.982Z,1.10
2022-12-12T09:39:46.064Z,1.10
2022-12-12T09:42:26.171Z,1.10
2022-12-12T09:44:58.389Z,1.00
2022-12-12T09:47:40.410Z,1.10
2022-12-12T09:50:26.580Z,1.10
2022-12-12T09:52:58.756Z,1.20
2022-12-12T09:55:40.640Z,1.30
2022-12-12T09:58:47.328Z,1.40
2022-12-12T10:05:09.242Z,1.40
2022-12-12T10:07:56.900Z,1.50
2022-12-12T10:10:38.474Z,1.40
2022-12-12T10:13:11.665Z,1.40
2022-12-12T10:15:43.231Z,1.50
2022-12-12T10:18:21.050Z,1.50
2022-12-12T10:20:51.574Z,1.50
2022-12-12T10:23:46.505Z,1.50
2022-12-12T10:26:28.162Z,1.50
2022-12-12T10:29:03.135Z,1.50
2022-12-12T10:31:38.767Z,1.60
2022-12-12T10:34:37.264Z,1.70
2022-12-12T10:37:29.266Z,1.60
2022-12-12T10:40:14.318Z,1.60
2022-12-12T10:43:10.405Z,1.60
2022-12-12T10:45:59.119Z,1.50
2022-12-12T10:48:27.568Z,1.60
2022-12-12T10:51:00.200Z,1.70
2022-12-12T10:53:29.097Z,1.70
2022-12-12T10:56:04.019Z,1.70
2022-12-12T10:58:42.979Z,1.80
2022-12-12T11:01:28.188Z,1.80
2022-12-12T11:04:06.023Z,1.80
2022-12-12T11:06:45.653Z,1.70
2022-12-12T11:09:23.413Z,1.80
2022-12-12T11:12:13.470Z,1.80
2022-12-12T11:14:49.788Z,1.90
2022-12-12T11:17:29.587Z,1.90
2022-12-12T11:20:01.529Z,2.00
2022-12-12T11:22:32.964Z,2.00
2022-12-12T11:25:00.635Z,1.90
2022-12-12T11:27:31.550Z,1.90
2022-12-12T11:30:08.233Z,1.90
2022-12-12T11:32:40.549Z,2.00
2022-12-12T11:35:45.601Z,2.00
2022-12-12T11:38:20.153Z,2.00
2022-12-12T11:40:57.162Z,2.00
2022-12-12T11:43:31.669Z,2.00
2022-12-12T11:45:59.968Z,1.90
2022-12-12T11:48:37.475Z,1.90
2022-12-12T11:51:04.866Z,1.90
2022-12-12T11:53:38.084Z,1.90
2022-12-12T11:56:35.047Z,1.80
2022-12-12T11:59:11.082Z,1.90
2022-12-12T12:01:44.006Z,1.90
2022-12-12T12:04:26.065Z,2.00
2022-12-12T12:07:11.416Z,2.20
2022-12-12T12:09:49.005Z,2.20
2022-12-12T12:12:26.445Z,2.30
2022-12-12T12:15:05.569Z,2.30
2022-12-12T12:20:17.806Z,2.40
2022-12-12T12:23:14.164Z,2.40
2022-12-12T12:26:00.053Z,2.50
2022-12-12T12:29:25.814Z,2.50
2022-12-12T12:32:23.387Z,2.60
2022-12-12T12:35:06.054Z,2.60
2022-12-12T12:37:55.922Z,2.60
2022-12-12T12:40:41.501Z,5.00
2022-12-12T12:43:30.376Z,2.60
2022-12-12T12:46:24.423Z,2.70
2022-12-12T12:48:55.127Z,2.70
2022-12-12T12:51:31.795Z,2.50
2022-12-12T12:54:16.971Z,2.30
2022-12-12T12:56:55.884Z,2.20
2022-12-12T12:59:29.913Z,2.10
2022-12-12T13:02:01.684Z,1.90
2022-12-12T13:04:54.879Z,1.80
2022-12-12T13:07:55.060Z,1.70
2022-12-12T13:10:25.468Z,0.70
2022-12-12T13:12:58.511Z,1.40
2022-12-12T13:15:36.776Z,1.30
2022-12-12T13:18:12.391Z,1.20
2022-12-12T13:20:42.860Z,1.00
2022-12-12T13:23:34.391Z,0.90
2022-12-12T13:26:24.554Z,0.80
2022-12-12T13:28:58.614Z,0.90
2022-12-12T13:31:43.043Z,0.80
2022-12-12T13:34:22.743Z,0.90
2022-12-12T13:36:51.492Z,0.90
2022-12-12T13:39:26.761Z,0.90
2022-12-12T13:42:01.791Z,0.90
2022-12-12T13:44:40.875Z,0.90
2022-12-12T13:47:22.900Z,1.00
2022-12-12T13:49:53.463Z,1.00
2022-12-12T13:52:28.219Z,1.00
2022-12-12T13:55:13.348Z,1.00
2022-12-12T13:58:08.302Z,1.00
2022-12-12T14:00:39.703Z,1.00
2022-12-12T14:03:12.952Z,1.00
2022-12-12T14:05:45.871Z,0.90
2022-12-12T14:08:13.874Z,0.90
2022-12-12T14:10:40.762Z,0.90
2022-12-12T14:13:24.289Z,0.90
2022-12-12T14:16:13.964Z,0.90
2022-12-12T14:19:04.937Z,0.90
2022-12-12T14:21:47.177Z,0.90
2022-12-12T14:24:32.931Z,1.00
2022-12-12T14:27:08.059Z,1.00
2022-12-12T14:29:43.135Z,1.00
2022-12-12T14:32:12.900Z,0.90
2022-12-12T14:35:13.954Z,0.90
2022-12-12T14:38:18.297Z,0.90
2022-12-12T14:40:48.487Z,0.90
2022-12-12T14:43:23.391Z,0.90
2022-12-12T14:45:50.439Z,0.80
2022-12-12T14:50:49.948Z,0.90
2022-12-12T14:53:23.462Z,0.90
2022-12-12T14:55:57.420Z,0.90
2022-12-12T14:58:28.230Z,0.90
2022-12-12T15:00:59.239Z,1.00
2022-12-12T15:03:34.500Z,1.20
2022-12-12T15:06:31.910Z,1.40
2022-12-12T15:09:18.488Z,1.40
2022-12-12T15:11:47.766Z,1.40
2022-12-12T15:14:26.581Z,1.40
2022-12-12T15:17:06.059Z,1.40
2022-12-12T15:19:46.059Z,1.40
2022-12-12T15:22:36.024Z,1.40
2022-12-12T15:25:21.289Z,1.30
2022-12-12T15:27:55.584Z,1.40
2022-12-12T15:30:42.972Z,1.40
2022-12-12T15:33:21.396Z,1.40
2022-12-12T15:36:02.919Z,1.40
2022-12-12T15:38:30.809Z,1.30
2022-12-12T15:41:00.156Z,1.40
2022-12-12T15:43:29.407Z,1.30
2022-12-12T15:46:06.918Z,1.30
2022-12-12T15:48:33.892Z,1.30
2022-12-12T15:51:07.593Z,1.10
2022-12-12T15:53:38.004Z,0.90
2022-12-12T15:56:23.437Z,0.80
2022-12-12T15:59:08.633Z,0.70
2022-12-12T16:01:35.674Z,0.60
2022-12-12T16:04:06.820Z,0.50
2022-12-12T16:06:38.253Z,0.50
2022-12-12T16:09:11.416Z,0.50
2022-12-12T16:11:53.057Z,0.60
2022-12-12T16:14:24.739Z,0.60
2022-12-12T16:17:15.947Z,0.60
2022-12-12T16:19:54.966Z,0.60
2022-12-12T16:22:40.257Z,0.70
2022-12-12T16:25:16.294Z,0.70
2022-12-12T16:27:43.922Z,0.70
2022-12-12T16:30:15.271Z,0.80
2022-12-12T16:32:43.636Z,0.90
2022-12-12T16:35:19.125Z,1.00
2022-12-12T16:37:46.530Z,1.10
2022-12-12T16:40:20.922Z,1.20
2022-12-12T16:42:59.482Z,1.20
2022-12-12T16:47:53.934Z,1.30
2022-12-12T16:50:20.829Z,1.30
2022-12-12T16:55:22.877Z,1.30
2022-12-12T16:57:50.889Z,1.20
2022-12-12T17:00:18.291Z,1.30
2022-12-12T17:02:45.349Z,1.40
2022-12-12T17:05:24.032Z,1.30
2022-12-12T17:07:52.786Z,1.40
2022-12-12T17:10:24.771Z,1.40
2022-12-12T17:12:55.191Z,1.50
2022-12-12T17:15:25.547Z,1.40
2022-12-12T17:17:52.564Z,1.30
2022-12-12T17:20:19.575Z,1.30
2022-12-12T17:22:46.637Z,1.30
2022-12-12T17:25:14.019Z,1.30
2022-12-12T17:27:42.076Z,1.30
2022-12-12T17:30:09.921Z,1.20
2022-12-12T17:32:37.932Z,0.90
2022-12-12T17:35:06.074Z,0.70
2022-12-12T17:37:33.097Z,0.60
2022-12-12T17:40:00.717Z,0.50
2022-12-12T17:42:31.382Z,0.50
2022-12-12T17:44:58.702Z,0.50
2022-12-12T17:51:15.673Z,0.60
2022-12-12T17:53:42.606Z,0.60
2022-12-12T17:56:12.228Z,0.60
2022-12-12T17:59:00.034Z,0.70
2022-12-12T18:01:29.587Z,0.70
2022-12-12T18:03:57.799Z,0.70
2022-12-12T18:06:26.296Z,0.60
2022-12-12T18:08:54.668Z,0.50
2022-12-12T18:11:25.600Z,0.40
2022-12-12T18:13:54.858Z,0.30
2022-12-12T18:16:23.804Z,0.30
2022-12-12T18:18:52.871Z,0.00
2022-12-12T18:21:59.121Z,0.00
2022-12-12T18:24:09.948Z,-0.10
2022-12-12T18:26:37.120Z,-0.10
2022-12-12T18:29:07.201Z,-0.10
2022-12-12T18:31:35.011Z,0.00
2022-12-12T18:40:16.688Z,0.00
2022-12-12T18:42:43.829Z,0.10
2022-12-12T18:45:12.195Z,0.10
2022-12-12T18:47:39.178Z,0.20
2022-12-12T18:50:06.573Z,0.20
2022-12-12T18:52:34.036Z,0.20
2022-12-12T18:55:01.221Z,0.20
2022-12-12T18:57:28.113Z,0.20
2022-12-12T18:59:55.350Z,0.10
2022-12-12T19:02:22.265Z,0.10
2022-12-12T19:04:50.384Z,0.10
2022-12-12T19:07:18.575Z,0.10
2022-12-12T19:09:46.644Z,0.10
2022-12-12T19:12:13.575Z,0.20
2022-12-12T19:15:08.254Z,0.10
2022-12-12T19:17:27.910Z,0.10
2022-12-12T19:19:55.105Z,0.10
2022-12-12T19:22:44.233Z,0.10
2022-12-12T19:25:09.934Z,0.10
2022-12-12T19:27:36.813Z,0.10
2022-12-12T19:30:05.144Z,0.10
2022-12-12T19:34:59.831Z,0.20
2022-12-12T19:37:26.922Z,0.20
2022-12-12T19:39:53.951Z,0.20
2022-12-12T19:42:21.224Z,0.20
2022-12-12T19:44:48.124Z,0.20
2022-12-12T19:49:43.876Z,0.20
2022-12-12T19:52:14.350Z,0.20
2022-12-12T19:57:08.909Z,0.30
2022-12-12T19:59:35.843Z,0.20
2022-12-12T20:02:02.925Z,0.30
2022-12-12T20:04:30.405Z,0.20
2022-12-12T20:06:57.869Z,0.20
2022-12-12T20:09:27.162Z,0.20
2022-12-12T20:11:55.410Z,0.10
2022-12-12T20:14:25.434Z,0.20
2022-12-12T20:16:54.012Z,0.20
2022-12-12T20:19:23.177Z,0.10
2022-12-12T20:22:06.597Z,0.20
2022-12-12T20:24:34.066Z,0.20
2022-12-12T20:27:03.854Z,0.20
2022-12-12T20:29:31.321Z,0.20
2022-12-12T20:34:28.321Z,0.20
2022-12-12T20:39:24.882Z,0.20
2022-12-12T20:41:53.872Z,0.20
2022-12-12T20:44:23.419Z,0.20
2022-12-12T20:46:50.350Z,0.20
2022-12-12T20:49:19.929Z,0.20
2022-12-12T20:51:56.325Z,0.20
2022-12-12T20:54:25.319Z,0.20
2022-12-12T20:56:53.559Z,0.10
2022-12-12T20:59:20.489Z,0.10
2022-12-12T21:04:16.188Z,0.10
2022-12-12T21:06:48.263Z,0.10
2022-12-12T21:09:22.691Z,0.10
2022-12-12T21:11:51.064Z,0.10
2022-12-12T21:14:18.134Z,0.10
2022-12-12T21:16:45.023Z,0.10
2022-12-12T21:19:14.305Z,0.10
2022-12-12T21:21:42.984Z,0.00
2022-12-12T21:24:11.778Z,0.00
2022-12-12T21:29:06.664Z,0.00
2022-12-12T21:31:37.102Z,0.10
2022-12-12T21:34:05.940Z,-0.10
2022-12-12T21:36:33.032Z,-0.10
2022-12-12T21:39:01.574Z,-0.10
2022-12-12T21:41:28.693Z,-0.10
2022-12-12T21:43:57.029Z,-0.20
2022-12-12T21:46:26.036Z,-0.20
2022-12-12T21:49:11.984Z,-0.20
2022-12-12T21:51:40.788Z,-0.20
2022-12-12T21:54:09.687Z,-0.30
2022-12-12T22:01:32.483Z,-0.40
2022-12-12T22:04:00.322Z,-0.40
2022-12-12T22:06:29.792Z,-0.40
2022-12-12T22:08:58.100Z,-0.40
2022-12-12T22:14:12.506Z,-0.40
2022-12-12T22:19:10.611Z,-0.50
2022-12-12T22:21:37.629Z,-0.50
2022-12-12T22:24:05.117Z,-0.60
2022-12-12T22:26:34.946Z,-0.60
2022-12-12T22:29:05.046Z,-0.60
2022-12-12T22:31:34.178Z,-0.70
2022-12-12T22:34:03.506Z,-0.70
2022-12-12T22:36:32.844Z,-0.70
2022-12-12T22:39:01.287Z,-0.80
2022-12-12T22:41:29.619Z,-0.80
2022-12-12T22:43:59.073Z,-0.80
2022-12-12T22:46:27.156Z,-0.80
2022-12-12T22:48:59.916Z,-0.80
2022-12-12T22:51:32.117Z,-0.90
2022-12-12T22:54:01.633Z,-0.90
2022-12-12T22:56:30.541Z,-0.90
2022-12-12T22:58:57.698Z,-0.90
2022-12-12T23:06:24.073Z,-1.00
2022-12-12T23:08:57.341Z,-1.10
2022-12-12T23:11:27.493Z,-1.10
2022-12-12T23:13:58.781Z,-1.10
2022-12-12T23:21:23.921Z,-1.20
2022-12-12T23:23:51.532Z,-1.20
2022-12-12T23:26:21.288Z,-1.20
2022-12-12T23:31:22.162Z,-1.20
2022-12-12T23:33:53.668Z,-1.20
2022-12-12T23:41:16.555Z,-1.20
2022-12-12T23:46:28.698Z,-1.20
2022-12-12T23:49:04.547Z,-1.20
2022-12-12T23:51:33.825Z,-1.20
2022-12-12T23:54:03.843Z,-1.20
2022-12-12T23:58:59.204Z,-1.10
